Time;durP1;ratioP1;P1;durP2;ratioP2;P2;SDS_P1;SDS_P2;PMS_P1;PMS_P2;Temp;Humidity;BMP_temperature;BMP_pressure;BME280_temperature;BME280_humidity;BME280_pressure;Samples;Min_cycle;Max_cycle;Signal;HPM_P1;HPM_P2
2023/10/26 00:00:17;;;;;;;;;;;9.20;99.90;;;;;;5054246;28;20647;-74
2023/10/26 00:02:43;;;;;;;;;;;9.20;99.90;;;;;;5053962;28;19913;-74
2023/10/26 00:05:08;;;;;;;;;;;9.10;99.90;;;;;;5056301;28;19920;-74
2023/10/26 00:07:35;;;;;;;;;;;9.20;98.80;;;;;;5054478;28;19916;-74
2023/10/26 00:10:00;;;;;;;;;;;9.10;99.80;;;;;;5057900;28;19920;-74
2023/10/26 00:12:26;;;;;;;;;;;9.10;98.90;;;;;;5046609;28;19924;-74
2023/10/26 00:14:51;;;;;;;;;;;9.10;98.20;;;;;;5055671;28;19918;-74
2023/10/26 00:17:17;;;;;;;;;;;9.20;95.90;;;;;;5054579;28;19912;-73
2023/10/26 00:19:43;;;;;;;;;;;9.40;95.30;;;;;;5047668;28;19952;-75
2023/10/26 00:22:08;;;;;;;;;;;9.40;94.40;;;;;;5051418;28;20580;-74
2023/10/26 00:24:34;;;;;;;;;;;9.40;94.40;;;;;;5049686;28;19917;-74
2023/10/26 00:26:59;;;;;;;;;;;9.50;94.10;;;;;;5052601;28;19920;-73
2023/10/26 00:29:25;;;;;;;;;;;9.60;93.40;;;;;;5047092;28;19928;-74
2023/10/26 00:31:50;;;;;;;;;;;9.60;93.00;;;;;;5056642;28;19917;-74
2023/10/26 00:34:16;;;;;;;;;;;9.60;93.50;;;;;;5051216;28;19928;-74
2023/10/26 00:36:41;;;;;;;;;;;9.50;93.10;;;;;;5055161;28;19916;-73
2023/10/26 00:39:07;;;;;;;;;;;9.60;92.60;;;;;;5054205;28;20598;-75
2023/10/26 00:41:32;;;;;;;;;;;9.60;92.60;;;;;;5057079;28;20464;-75
2023/10/26 00:43:58;;;;;;;;;;;9.60;92.00;;;;;;5049813;28;20054;-72
2023/10/26 00:46:24;;;;;;;;;;;9.70;92.10;;;;;;5050656;28;19909;-72
2023/10/26 00:48:51;;;;;;;;;;;9.80;91.60;;;;;;5049165;28;19909;-73
2023/10/26 00:51:16;;;;;;;;;;;9.80;91.30;;;;;;5052893;28;19962;-73
2023/10/26 00:53:43;;;;;;;;;;;9.70;91.70;;;;;;5054821;28;20002;-73
2023/10/26 00:56:10;;;;;;;;;;;9.80;91.50;;;;;;5054451;28;19913;-73
2023/10/26 00:58:36;;;;;;;;;;;9.80;91.10;;;;;;5053421;28;20371;-73
2023/10/26 01:01:01;;;;;;;;;;;9.80;91.30;;;;;;5050168;28;19928;-75
2023/10/26 01:03:29;;;;;;;;;;;9.80;90.50;;;;;;5049614;28;19909;-72
2023/10/26 01:05:55;;;;;;;;;;;9.90;90.20;;;;;;5049280;28;20374;-75
2023/10/26 01:08:20;;;;;;;;;;;9.90;90.10;;;;;;5054080;28;19927;-73
2023/10/26 01:10:46;;;;;;;;;;;9.80;90.40;;;;;;5052357;28;19920;-73
2023/10/26 01:13:12;;;;;;;;;;;9.90;90.10;;;;;;5055023;28;19962;-74
2023/10/26 01:15:38;;;;;;;;;;;9.90;90.10;;;;;;5047402;28;19921;-73
2023/10/26 01:18:03;;;;;;;;;;;9.80;90.20;;;;;;5048006;28;20337;-74
2023/10/26 01:20:29;;;;;;;;;;;9.80;90.20;;;;;;5047918;28;20558;-74
2023/10/26 01:22:55;;;;;;;;;;;9.90;90.00;;;;;;5058876;28;19919;-73
2023/10/26 01:25:20;;;;;;;;;;;9.80;90.00;;;;;;5062718;28;20259;-73
2023/10/26 01:27:46;;;;;;;;;;;9.80;90.20;;;;;;5050755;28;19913;-74
2023/10/26 01:30:12;;;;;;;;;;;9.70;90.20;;;;;;5052027;28;20717;-74
2023/10/26 01:32:38;;;;;;;;;;;9.60;90.30;;;;;;5051276;28;19932;-73
2023/10/26 01:35:04;;;;;;;;;;;9.60;90.50;;;;;;5053250;28;19917;-74
2023/10/26 01:37:30;;;;;;;;;;;9.60;90.30;;;;;;5055075;28;20299;-73
2023/10/26 01:39:55;;;;;;;;;;;9.50;90.40;;;;;;5048689;28;20450;-74
2023/10/26 01:42:21;;;;;;;;;;;9.40;90.60;;;;;;5052755;28;20294;-74
2023/10/26 01:44:46;;;;;;;;;;;9.40;90.60;;;;;;5048336;28;19916;-74
2023/10/26 01:47:13;;;;;;;;;;;9.30;90.80;;;;;;5047174;28;19916;-74
2023/10/26 01:49:38;;;;;;;;;;;9.30;90.70;;;;;;5047780;28;20328;-72
2023/10/26 01:52:04;;;;;;;;;;;9.30;90.80;;;;;;5051244;28;19919;-73
2023/10/26 01:54:29;;;;;;;;;;;9.30;90.80;;;;;;5050416;28;19917;-72
2023/10/26 01:56:55;;;;;;;;;;;9.20;90.80;;;;;;5051691;28;20310;-73
2023/10/26 01:59:21;;;;;;;;;;;9.20;90.90;;;;;;5053209;28;20397;-74
2023/10/26 02:01:49;;;;;;;;;;;9.20;90.90;;;;;;5049918;28;20518;-74
2023/10/26 02:04:14;;;;;;;;;;;9.10;91.00;;;;;;5046273;28;19917;-73
2023/10/26 02:06:40;;;;;;;;;;;9.10;91.20;;;;;;5050732;28;20537;-75
2023/10/26 02:09:05;;;;;;;;;;;9.00;91.20;;;;;;5053738;28;20442;-73
2023/10/26 02:11:31;;;;;;;;;;;9.00;91.30;;;;;;5053720;28;20022;-73
2023/10/26 02:13:56;;;;;;;;;;;8.90;91.50;;;;;;5052382;28;19917;-73
2023/10/26 02:16:22;;;;;;;;;;;9.00;91.30;;;;;;5051861;28;19923;-74
2023/10/26 02:18:48;;;;;;;;;;;8.90;91.50;;;;;;5049587;28;19920;-73
2023/10/26 02:21:13;;;;;;;;;;;8.80;91.70;;;;;;5058231;28;20395;-73
2023/10/26 02:23:40;;;;;;;;;;;8.80;91.80;;;;;;5053042;28;20302;-73
2023/10/26 02:26:05;;;;;;;;;;;8.70;92.00;;;;;;5049104;28;19977;-74
2023/10/26 02:28:31;;;;;;;;;;;8.80;91.80;;;;;;5053361;28;20410;-74
2023/10/26 02:30:56;;;;;;;;;;;8.80;91.70;;;;;;5083177;28;19938;-73
2023/10/26 02:33:22;;;;;;;;;;;8.80;91.70;;;;;;5047623;28;19959;-72
2023/10/26 02:35:47;;;;;;;;;;;8.70;92.00;;;;;;5051719;28;19920;-73
2023/10/26 02:38:13;;;;;;;;;;;8.70;92.00;;;;;;5056410;28;19912;-72
2023/10/26 02:40:39;;;;;;;;;;;8.60;92.20;;;;;;5054717;28;19913;-74
2023/10/26 02:43:05;;;;;;;;;;;8.50;92.40;;;;;;5052745;28;19916;-74
2023/10/26 02:45:31;;;;;;;;;;;8.40;92.50;;;;;;5055362;28;20083;-74
2023/10/26 02:47:59;;;;;;;;;;;8.30;92.10;;;;;;5053414;28;19919;-73
2023/10/26 02:50:25;;;;;;;;;;;8.40;92.70;;;;;;5053726;28;19919;-74
2023/10/26 02:52:50;;;;;;;;;;;8.40;92.50;;;;;;5059618;28;19909;-74
2023/10/26 02:55:16;;;;;;;;;;;8.30;92.50;;;;;;5058661;28;20510;-73
2023/10/26 02:57:41;;;;;;;;;;;8.30;93.00;;;;;;5060284;28;19992;-73
2023/10/26 03:00:07;;;;;;;;;;;8.10;93.10;;;;;;5053981;28;19978;-73
2023/10/26 03:02:33;;;;;;;;;;;8.10;93.40;;;;;;5054753;28;19921;-73
2023/10/26 03:04:58;;;;;;;;;;;8.00;93.40;;;;;;5055274;28;19912;-73
2023/10/26 03:07:24;;;;;;;;;;;8.00;93.60;;;;;;5059375;28;19954;-75
2023/10/26 03:09:50;;;;;;;;;;;8.00;93.60;;;;;;5050070;28;19921;-74
2023/10/26 03:12:16;;;;;;;;;;;8.10;93.80;;;;;;5046643;28;19924;-73
2023/10/26 03:14:42;;;;;;;;;;;8.10;93.80;;;;;;5055671;28;20366;-74
2023/10/26 03:17:07;;;;;;;;;;;8.20;93.80;;;;;;5059912;28;19921;-74
2023/10/26 03:19:33;;;;;;;;;;;8.10;93.50;;;;;;5054163;28;19924;-75
2023/10/26 03:21:58;;;;;;;;;;;8.10;93.60;;;;;;5057517;28;20294;-75
2023/10/26 03:24:24;;;;;;;;;;;8.00;93.70;;;;;;5046783;28;20433;-73
2023/10/26 03:26:49;;;;;;;;;;;8.00;93.90;;;;;;5057049;28;19939;-75
2023/10/26 03:29:15;;;;;;;;;;;7.90;94.00;;;;;;5051148;28;20249;-74
2023/10/26 03:31:41;;;;;;;;;;;7.90;94.10;;;;;;5054866;28;20562;-74
2023/10/26 03:34:07;;;;;;;;;;;7.90;94.20;;;;;;5053264;28;19929;-73
2023/10/26 03:36:33;;;;;;;;;;;8.00;94.60;;;;;;5056308;28;20325;-74
2023/10/26 03:38:58;;;;;;;;;;;8.00;94.50;;;;;;5054285;28;19916;-75
2023/10/26 03:41:24;;;;;;;;;;;8.00;94.50;;;;;;5101656;28;19959;-72
2023/10/26 03:43:50;;;;;;;;;;;8.00;94.30;;;;;;5065948;28;19928;-74
2023/10/26 03:46:15;;;;;;;;;;;8.00;94.50;;;;;;5055458;28;19912;-74
2023/10/26 03:48:41;;;;;;;;;;;8.00;94.60;;;;;;5057281;28;20374;-73
2023/10/26 03:51:06;;;;;;;;;;;8.10;94.60;;;;;;5047062;28;20029;-74
2023/10/26 03:53:32;;;;;;;;;;;8.10;94.50;;;;;;5055468;28;19916;-75
2023/10/26 03:55:58;;;;;;;;;;;8.20;94.50;;;;;;5046876;28;19920;-75
2023/10/26 03:58:23;;;;;;;;;;;8.20;94.60;;;;;;5055228;28;19912;-73
2023/10/26 04:00:51;;;;;;;;;;;8.30;94.60;;;;;;5053145;28;21282;-74
2023/10/26 04:03:16;;;;;;;;;;;8.40;94.40;;;;;;5050828;28;19908;-73
2023/10/26 04:05:42;;;;;;;;;;;8.50;94.40;;;;;;5052853;28;19916;-73
2023/10/26 04:08:09;;;;;;;;;;;8.60;94.50;;;;;;5053565;28;20531;-74
2023/10/26 04:10:35;;;;;;;;;;;8.70;94.50;;;;;;5045148;28;19960;-75
2023/10/26 04:13:01;;;;;;;;;;;8.70;94.80;;;;;;5053913;28;20002;-75
2023/10/26 04:15:26;;;;;;;;;;;8.70;95.70;;;;;;5048082;28;19959;-71
2023/10/26 04:17:52;;;;;;;;;;;8.70;97.10;;;;;;5050726;28;19909;-73
2023/10/26 04:20:17;;;;;;;;;;;9.10;98.80;;;;;;5058596;28;20463;-74
2023/10/26 04:22:43;;;;;;;;;;;9.20;99.90;;;;;;5050749;28;20394;-75
2023/10/26 04:25:09;;;;;;;;;;;9.20;99.90;;;;;;5057054;28;20573;-74
2023/10/26 04:27:35;;;;;;;;;;;9.20;99.90;;;;;;5051454;28;20011;-74
2023/10/26 04:30:01;;;;;;;;;;;9.20;99.90;;;;;;5052362;28;20744;-72
2023/10/26 04:32:26;;;;;;;;;;;9.30;99.90;;;;;;5055122;28;19917;-74
2023/10/26 04:34:53;;;;;;;;;;;9.30;99.90;;;;;;5051569;28;20374;-74
2023/10/26 04:37:18;;;;;;;;;;;9.40;99.90;;;;;;5052822;28;20007;-73
2023/10/26 04:39:44;;;;;;;;;;;9.50;99.90;;;;;;5055699;28;20054;-74
2023/10/26 04:42:10;;;;;;;;;;;9.50;99.90;;;;;;5051786;28;19942;-76
2023/10/26 04:44:35;;;;;;;;;;;9.50;99.90;;;;;;5055041;28;19913;-73
2023/10/26 04:47:01;;;;;;;;;;;9.50;99.90;;;;;;5051368;28;19917;-73
2023/10/26 04:49:26;;;;;;;;;;;9.40;99.90;;;;;;5046592;28;19917;-73
2023/10/26 04:51:52;;;;;;;;;;;9.30;99.90;;;;;;5051428;28;19916;-73
2023/10/26 04:54:17;;;;;;;;;;;9.40;99.90;;;;;;5055516;28;19920;-75
2023/10/26 04:56:43;;;;;;;;;;;9.40;99.90;;;;;;5050870;28;19912;-74
2023/10/26 04:59:08;;;;;;;;;;;9.40;99.90;;;;;;5053837;28;19923;-74
2023/10/26 05:01:34;;;;;;;;;;;9.30;99.90;;;;;;5046666;28;19967;-74
2023/10/26 05:04:03;;;;;;;;;;;9.30;99.90;;;;;;5049927;28;20266;-75
2023/10/26 05:06:28;;;;;;;;;;;9.40;99.90;;;;;;5044773;28;19916;-74
2023/10/26 05:08:54;;;;;;;;;;;9.30;99.90;;;;;;5044840;28;19913;-74
2023/10/26 05:11:20;;;;;;;;;;;9.30;99.90;;;;;;5050493;28;19913;-74
2023/10/26 05:13:45;;;;;;;;;;;9.30;99.90;;;;;;5049075;28;19924;-72
2023/10/26 05:16:11;;;;;;;;;;;9.40;99.90;;;;;;5051444;28;19908;-72
2023/10/26 05:18:36;;;;;;;;;;;9.40;99.90;;;;;;5051125;28;19936;-72
2023/10/26 05:21:02;;;;;;;;;;;9.40;99.90;;;;;;5044823;28;19919;-72
2023/10/26 05:23:28;;;;;;;;;;;9.50;99.90;;;;;;5050086;28;20713;-73
2023/10/26 05:25:53;;;;;;;;;;;9.50;99.90;;;;;;5051027;28;20295;-76
2023/10/26 05:28:19;;;;;;;;;;;9.50;99.90;;;;;;5055630;28;20402;-75
2023/10/26 05:30:44;;;;;;;;;;;9.50;99.90;;;;;;5053422;28;20055;-74
2023/10/26 05:33:10;;;;;;;;;;;9.50;99.90;;;;;;5048387;28;20335;-75
2023/10/26 05:35:35;;;;;;;;;;;9.50;99.90;;;;;;5050164;28;19919;-75
2023/10/26 05:38:01;;;;;;;;;;;9.60;99.90;;;;;;5051213;28;19986;-75
2023/10/26 05:40:27;;;;;;;;;;;9.60;99.90;;;;;;5045309;28;20358;-76
2023/10/26 05:42:52;;;;;;;;;;;9.60;99.90;;;;;;5045108;28;19977;-79
2023/10/26 05:45:18;;;;;;;;;;;9.60;99.90;;;;;;5049461;28;20579;-74
2023/10/26 05:47:43;;;;;;;;;;;9.70;99.90;;;;;;5055196;28;19958;-75
2023/10/26 05:50:10;;;;;;;;;;;9.70;99.90;;;;;;5047700;28;20336;-79
2023/10/26 05:52:36;;;;;;;;;;;9.70;99.90;;;;;;5054574;28;20324;-77
2023/10/26 05:55:02;;;;;;;;;;;9.80;99.90;;;;;;5050864;28;20047;-76
2023/10/26 05:57:28;;;;;;;;;;;9.80;99.90;;;;;;5046082;28;20119;-78
2023/10/26 05:59:53;;;;;;;;;;;9.80;99.90;;;;;;5080100;28;19920;-77
2023/10/26 06:02:19;;;;;;;;;;;9.80;99.90;;;;;;5052437;28;19924;-80
2023/10/26 06:04:44;;;;;;;;;;;9.80;99.90;;;;;;5048982;28;19971;-76
2023/10/26 06:07:10;;;;;;;;;;;9.80;99.90;;;;;;5054465;28;19960;-76
2023/10/26 06:09:35;;;;;;;;;;;9.80;99.90;;;;;;5049240;28;20703;-77
2023/10/26 06:12:01;;;;;;;;;;;9.80;99.90;;;;;;5053424;28;19924;-76
2023/10/26 06:14:27;;;;;;;;;;;9.90;99.90;;;;;;5054681;28;20287;-76
2023/10/26 06:16:52;;;;;;;;;;;9.90;99.90;;;;;;5057472;28;20409;-79
2023/10/26 06:19:18;;;;;;;;;;;10.00;99.90;;;;;;5058385;28;19944;-80
2023/10/26 06:21:43;;;;;;;;;;;10.00;99.90;;;;;;5054366;28;19912;-79
2023/10/26 06:24:09;;;;;;;;;;;10.00;99.90;;;;;;5057099;28;20062;-76
2023/10/26 06:26:34;;;;;;;;;;;9.90;99.90;;;;;;5058429;28;19983;-76
2023/10/26 06:29:00;;;;;;;;;;;10.00;99.90;;;;;;5058670;28;20504;-78
2023/10/26 06:31:26;;;;;;;;;;;10.00;99.90;;;;;;5056859;28;20409;-80
2023/10/26 06:33:51;;;;;;;;;;;10.10;99.90;;;;;;5088593;28;19921;-78
2023/10/26 06:36:17;;;;;;;;;;;10.10;99.90;;;;;;5055865;28;20031;-79
2023/10/26 06:38:42;;;;;;;;;;;10.10;99.90;;;;;;5060895;28;19920;-78
2023/10/26 06:41:11;;;;;;;;;;;10.20;99.90;;;;;;5053225;28;20685;-78
2023/10/26 06:43:37;;;;;;;;;;;10.30;99.90;;;;;;5057693;28;20007;-82
2023/10/26 06:46:03;;;;;;;;;;;10.10;99.90;;;;;;5056696;28;19940;-77
2023/10/26 06:48:29;;;;;;;;;;;10.20;99.90;;;;;;5055208;28;19962;-77
2023/10/26 06:50:59;;;;;;;;;;;10.30;99.90;;;;;;5053433;28;19916;-78
2023/10/26 06:53:25;;;;;;;;;;;10.20;99.90;;;;;;5054712;28;19916;-78
2023/10/26 06:55:50;;;;;;;;;;;10.30;99.90;;;;;;5056163;28;19904;-78
2023/10/26 06:58:16;;;;;;;;;;;10.30;99.90;;;;;;5058409;28;20291;-81
2023/10/26 07:00:42;;;;;;;;;;;10.40;99.90;;;;;;5054212;28;19913;-77
2023/10/26 07:03:07;;;;;;;;;;;10.30;99.90;;;;;;5056851;28;20334;-76
2023/10/26 07:05:33;;;;;;;;;;;10.40;99.90;;;;;;5057568;28;19909;-78
2023/10/26 07:07:59;;;;;;;;;;;10.50;99.90;;;;;;5052532;28;19942;-77
2023/10/26 07:10:28;;;;;;;;;;;10.50;99.90;;;;;;5054984;28;20414;-77
2023/10/26 07:12:53;;;;;;;;;;;10.60;99.90;;;;;;5056192;28;19912;-79
2023/10/26 07:15:19;;;;;;;;;;;10.60;99.90;;;;;;5055397;28;19928;-77
2023/10/26 07:17:44;;;;;;;;;;;10.60;99.90;;;;;;5055291;28;19920;-80
2023/10/26 07:20:12;;;;;;;;;;;10.60;99.90;;;;;;5056912;28;20574;-80
2023/10/26 07:22:38;;;;;;;;;;;10.70;99.90;;;;;;5076745;28;19913;-81
2023/10/26 07:25:05;;;;;;;;;;;10.60;99.90;;;;;;5070485;28;19947;-83
2023/10/26 07:27:30;;;;;;;;;;;10.60;99.90;;;;;;5063252;28;19912;-76
2023/10/26 07:29:56;;;;;;;;;;;10.70;99.90;;;;;;5046638;28;20019;-77
2023/10/26 07:32:22;;;;;;;;;;;10.60;99.90;;;;;;5080544;28;19924;-78
2023/10/26 07:34:47;;;;;;;;;;;10.60;99.90;;;;;;5052194;28;19909;-79
2023/10/26 07:37:13;;;;;;;;;;;10.60;99.90;;;;;;5051926;28;19951;-78
2023/10/26 07:39:39;;;;;;;;;;;10.70;99.90;;;;;;5055958;28;19916;-77
2023/10/26 07:42:04;;;;;;;;;;;10.60;99.90;;;;;;5054287;28;19924;-77
2023/10/26 07:44:31;;;;;;;;;;;10.60;99.90;;;;;;5052059;28;20426;-77
2023/10/26 07:46:56;;;;;;;;;;;10.70;99.90;;;;;;5057902;28;20027;-80
2023/10/26 07:49:22;;;;;;;;;;;10.60;99.90;;;;;;5054861;28;20015;-79
2023/10/26 07:51:49;;;;;;;;;;;10.60;99.90;;;;;;5090331;28;20460;-78
2023/10/26 07:54:15;;;;;;;;;;;10.70;99.90;;;;;;5052556;28;19919;-78
2023/10/26 07:56:40;;;;;;;;;;;10.70;99.90;;;;;;5055893;28;19913;-82
2023/10/26 07:59:06;;;;;;;;;;;10.70;99.90;;;;;;5053410;28;19913;-80
2023/10/26 08:01:31;;;;;;;;;;;10.50;99.90;;;;;;5055414;28;19916;-79
2023/10/26 08:03:57;;;;;;;;;;;10.60;99.90;;;;;;5052033;28;19916;-79
2023/10/26 08:06:23;;;;;;;;;;;10.70;99.90;;;;;;5056085;28;19916;-79
2023/10/26 08:08:51;;;;;;;;;;;10.80;99.90;;;;;;5046960;28;19920;-76
2023/10/26 08:11:17;;;;;;;;;;;10.80;99.90;;;;;;5054714;28;20042;-79
2023/10/26 08:13:43;;;;;;;;;;;10.60;99.90;;;;;;5048750;28;20023;-77
2023/10/26 08:16:09;;;;;;;;;;;10.60;99.90;;;;;;5051512;28;19912;-78
2023/10/26 08:18:35;;;;;;;;;;;10.70;99.90;;;;;;5055219;28;19908;-81
2023/10/26 08:21:03;;;;;;;;;;;10.60;99.90;;;;;;5055330;28;19951;-80
2023/10/26 08:23:29;;;;;;;;;;;10.80;99.90;;;;;;5049457;28;19924;-80
2023/10/26 08:25:55;;;;;;;;;;;10.80;99.90;;;;;;5054081;28;19921;-77
2023/10/26 08:28:21;;;;;;;;;;;10.90;99.90;;;;;;5040718;28;20026;-77
2023/10/26 08:30:47;;;;;;;;;;;11.00;99.90;;;;;;5076098;28;19917;-77
2023/10/26 08:33:13;;;;;;;;;;;10.90;99.90;;;;;;5057435;28;19929;-79
2023/10/26 08:35:41;;;;;;;;;;;11.00;99.90;;;;;;5051434;28;20383;-81
2023/10/26 08:38:07;;;;;;;;;;;11.10;99.90;;;;;;5055315;28;19912;-80
2023/10/26 08:40:33;;;;;;;;;;;11.10;99.90;;;;;;5049797;28;20441;-79
2023/10/26 08:43:00;;;;;;;;;;;11.50;99.90;;;;;;5059529;28;19943;-80
2023/10/26 08:45:27;;;;;;;;;;;11.60;99.90;;;;;;5052554;28;19924;-79
2023/10/26 08:47:55;;;;;;;;;;;11.50;99.90;;;;;;5048041;28;19909;-79
2023/10/26 08:50:21;;;;;;;;;;;11.60;99.90;;;;;;5054602;28;19924;-77
2023/10/26 08:52:47;;;;;;;;;;;11.50;99.90;;;;;;5052217;28;19917;-78
2023/10/26 08:55:13;;;;;;;;;;;11.40;99.90;;;;;;5051247;28;19912;-78
2023/10/26 08:57:51;;;;;;;;;;;11.30;99.90;;;;;;5052753;28;19931;-78
2023/10/26 09:00:18;;;;;;;;;;;11.40;99.90;;;;;;5060729;28;19909;-76
2023/10/26 09:02:44;;;;;;;;;;;11.40;99.90;;;;;;5055682;28;19915;-77
2023/10/26 09:05:10;;;;;;;;;;;11.50;99.90;;;;;;5053871;28;20370;-80
2023/10/26 09:07:36;;;;;;;;;;;11.30;99.90;;;;;;5055082;28;19919;-77
2023/10/26 09:10:01;;;;;;;;;;;11.30;99.90;;;;;;5057436;28;19912;-77
2023/10/26 09:12:27;;;;;;;;;;;11.30;99.90;;;;;;5049788;28;19908;-75
2023/10/26 09:14:59;;;;;;;;;;;11.10;99.90;;;;;;5051817;28;19909;-77
2023/10/26 09:17:26;;;;;;;;;;;11.30;99.90;;;;;;5047354;28;19919;-76
2023/10/26 09:19:51;;;;;;;;;;;11.40;99.90;;;;;;5057206;28;19920;-76
2023/10/26 09:22:17;;;;;;;;;;;11.50;99.90;;;;;;5046116;28;19908;-78
2023/10/26 09:24:42;;;;;;;;;;;11.60;99.90;;;;;;5053746;28;20011;-78
2023/10/26 09:27:17;;;;;;;;;;;11.60;99.90;;;;;;5051699;28;20023;-77
2023/10/26 09:29:43;;;;;;;;;;;11.50;99.90;;;;;;5052665;28;19919;-76
2023/10/26 09:32:09;;;;;;;;;;;11.60;99.90;;;;;;5050908;28;20442;-76
2023/10/26 09:34:39;;;;;;;;;;;11.30;99.90;;;;;;5050984;28;19919;-78
2023/10/26 09:37:05;;;;;;;;;;;11.40;99.90;;;;;;5053696;28;20393;-78
2023/10/26 09:39:35;;;;;;;;;;;11.50;99.90;;;;;;5048203;28;19916;-76
2023/10/26 09:42:01;;;;;;;;;;;11.50;99.90;;;;;;5059707;28;19908;-76
2023/10/26 09:44:30;;;;;;;;;;;11.60;99.90;;;;;;5051526;28;19912;-78
2023/10/26 09:46:56;;;;;;;;;;;11.70;99.90;;;;;;5051246;28;19921;-77
2023/10/26 09:49:22;;;;;;;;;;;11.90;99.90;;;;;;5051352;28;19921;-83
2023/10/26 09:51:51;;;;;;;;;;;11.90;99.90;;;;;;5054875;28;19912;-78
2023/10/26 09:54:26;;;;;;;;;;;12.00;99.90;;;;;;5043996;28;19916;-77
2023/10/26 09:56:56;;;;;;;;;;;11.80;99.90;;;;;;5053812;28;19964;-77
2023/10/26 09:59:23;;;;;;;;;;;11.90;99.90;;;;;;5048983;28;19923;-76
2023/10/26 10:01:49;;;;;;;;;;;12.10;99.90;;;;;;5079690;28;19917;-77
2023/10/26 10:04:18;;;;;;;;;;;12.20;99.90;;;;;;5051950;28;19939;-77
2023/10/26 10:06:45;;;;;;;;;;;12.30;99.90;;;;;;5046970;28;19912;-79
2023/10/26 10:09:11;;;;;;;;;;;12.40;99.90;;;;;;5054194;28;20110;-77
2023/10/26 10:11:38;;;;;;;;;;;12.40;99.90;;;;;;5046635;28;20677;-79
2023/10/26 10:14:04;;;;;;;;;;;12.50;99.90;;;;;;5054129;28;19913;-79
2023/10/26 10:16:35;;;;;;;;;;;12.40;99.90;;;;;;5049684;28;19935;-77
2023/10/26 10:19:17;;;;;;;;;;;12.60;99.90;;;;;;5055390;28;19912;-76
2023/10/26 10:21:43;;;;;;;;;;;12.70;99.90;;;;;;5046356;28;19917;-79
2023/10/26 10:24:09;;;;;;;;;;;12.80;99.90;;;;;;5079037;28;19920;-79
2023/10/26 10:27:01;;;;;;;;;;;13.00;99.90;;;;;;5050686;28;19916;-79
2023/10/26 10:29:26;;;;;;;;;;;13.10;99.90;;;;;;5051954;28;19916;-78
2023/10/26 10:31:52;;;;;;;;;;;13.10;99.90;;;;;;5055839;28;19970;-78
2023/10/26 10:34:19;;;;;;;;;;;13.30;99.90;;;;;;5048632;28;19960;-80
2023/10/26 10:37:04;;;;;;;;;;;13.30;99.90;;;;;;5052176;28;19913;-79
2023/10/26 10:39:29;;;;;;;;;;;13.20;99.90;;;;;;5050452;28;19916;-78
2023/10/26 10:41:55;;;;;;;;;;;13.30;99.90;;;;;;5052365;28;20410;-76
2023/10/26 10:44:22;;;;;;;;;;;13.30;99.90;;;;;;5050699;28;19932;-78
2023/10/26 10:46:48;;;;;;;;;;;13.50;99.90;;;;;;5058620;28;19924;-78
2023/10/26 10:49:14;;;;;;;;;;;13.70;99.90;;;;;;5051631;28;19919;-77
2023/10/26 10:51:41;;;;;;;;;;;13.80;99.90;;;;;;5051287;28;19947;-79
2023/10/26 10:54:07;;;;;;;;;;;13.90;99.90;;;;;;5058400;28;19912;-77
2023/10/26 10:56:37;;;;;;;;;;;14.20;99.90;;;;;;5053105;28;19917;-80
2023/10/26 10:59:30;;;;;;;;;;;14.20;99.90;;;;;;5064996;28;19916;-79
2023/10/26 11:02:28;;;;;;;;;;;14.10;99.90;;;;;;5055779;28;19916;-77
2023/10/26 11:04:57;;;;;;;;;;;14.20;99.90;;;;;;5064728;28;20288;-78
2023/10/26 11:07:23;;;;;;;;;;;13.90;99.90;;;;;;5052822;28;19917;-78
2023/10/26 11:09:49;;;;;;;;;;;13.80;99.90;;;;;;5056729;28;19931;-78
2023/10/26 11:12:15;;;;;;;;;;;13.80;99.90;;;;;;5056966;28;20481;-78
2023/10/26 11:14:50;;;;;;;;;;;13.80;99.90;;;;;;5054548;28;19924;-77
2023/10/26 11:17:26;;;;;;;;;;;14.00;99.90;;;;;;5055161;28;19928;-77
2023/10/26 11:19:52;;;;;;;;;;;14.20;99.90;;;;;;5056937;28;19912;-76
2023/10/26 11:22:18;;;;;;;;;;;14.20;99.90;;;;;;5055649;28;19916;-78
2023/10/26 11:24:44;;;;;;;;;;;13.90;99.90;;;;;;5052848;28;19916;-80
2023/10/26 11:27:17;;;;;;;;;;;14.00;99.90;;;;;;5055507;28;19931;-78
2023/10/26 11:29:43;;;;;;;;;;;14.20;99.90;;;;;;5046115;28;19920;-79
2023/10/26 11:32:19;;;;;;;;;;;14.30;99.90;;;;;;5057201;28;19924;-78
2023/10/26 11:35:05;;;;;;;;;;;14.10;99.90;;;;;;5050914;28;20026;-78
2023/10/26 11:37:31;;;;;;;;;;;14.50;99.90;;;;;;5054333;28;19908;-79
2023/10/26 11:39:58;;;;;;;;;;;14.50;99.90;;;;;;5085963;28;20367;-78
2023/10/26 11:42:42;;;;;;;;;;;14.50;99.90;;;;;;5055004;28;20414;-78
2023/10/26 11:45:08;;;;;;;;;;;14.80;99.90;;;;;;5054477;28;19913;-78
2023/10/26 11:48:02;;;;;;;;;;;14.50;99.90;;;;;;5056383;28;19939;-78
2023/10/26 11:50:29;;;;;;;;;;;14.20;99.90;;;;;;5057064;28;19913;-78
2023/10/26 11:52:59;;;;;;;;;;;14.20;99.90;;;;;;5052417;28;19909;-76
2023/10/26 11:55:25;;;;;;;;;;;14.10;99.90;;;;;;5053937;28;19927;-78
2023/10/26 11:57:51;;;;;;;;;;;14.10;99.90;;;;;;5052272;28;19912;-78
2023/10/26 12:00:18;;;;;;;;;;;14.00;99.90;;;;;;5052343;28;20345;-78
2023/10/26 12:02:43;;;;;;;;;;;14.00;99.90;;;;;;5054868;28;19908;-76
2023/10/26 12:05:15;;;;;;;;;;;14.20;99.90;;;;;;5054839;28;19952;-78
2023/10/26 12:07:42;;;;;;;;;;;14.10;99.90;;;;;;5055653;28;20402;-78
2023/10/26 12:10:07;;;;;;;;;;;14.10;99.90;;;;;;5052933;28;19920;-76
2023/10/26 12:12:33;;;;;;;;;;;14.00;99.90;;;;;;5051989;28;19916;-77
2023/10/26 12:14:58;;;;;;;;;;;14.10;99.90;;;;;;5052322;28;20373;-78
2023/10/26 12:17:24;;;;;;;;;;;14.10;99.90;;;;;;5053702;28;19916;-78
2023/10/26 12:19:49;;;;;;;;;;;13.90;99.90;;;;;;5052934;28;20007;-79
2023/10/26 12:22:15;;;;;;;;;;;14.00;99.90;;;;;;5057094;28;19920;-78
2023/10/26 12:24:41;;;;;;;;;;;13.90;99.90;;;;;;5052911;28;19919;-78
2023/10/26 12:27:06;;;;;;;;;;;14.00;99.90;;;;;;5059243;28;19916;-80
2023/10/26 12:29:32;;;;;;;;;;;13.90;99.90;;;;;;5050298;28;19920;-79
2023/10/26 12:31:58;;;;;;;;;;;13.70;99.90;;;;;;5053940;28;20306;-79
2023/10/26 12:34:23;;;;;;;;;;;13.80;99.90;;;;;;5082892;28;19924;-79
2023/10/26 12:36:49;;;;;;;;;;;13.80;99.90;;;;;;5052739;28;19923;-81
2023/10/26 12:39:14;;;;;;;;;;;13.90;99.90;;;;;;5053414;28;19923;-79
2023/10/26 12:41:40;;;;;;;;;;;14.10;99.90;;;;;;5055809;28;19924;-79
2023/10/26 12:44:05;;;;;;;;;;;14.00;99.90;;;;;;5053289;28;19975;-76
2023/10/26 12:46:31;;;;;;;;;;;14.20;99.90;;;;;;5053557;28;19944;-78
2023/10/26 12:48:56;;;;;;;;;;;14.10;99.90;;;;;;5051303;28;19917;-77
2023/10/26 12:51:22;;;;;;;;;;;14.00;99.90;;;;;;5045728;28;19960;-76
2023/10/26 12:53:48;;;;;;;;;;;13.80;99.90;;;;;;5053785;28;19916;-77
2023/10/26 12:56:13;;;;;;;;;;;14.00;99.90;;;;;;5052608;28;20371;-78
2023/10/26 12:58:39;;;;;;;;;;;14.00;99.90;;;;;;5053295;28;19912;-78
2023/10/26 13:01:05;;;;;;;;;;;14.00;99.90;;;;;;5049943;28;20003;-79
2023/10/26 13:03:31;;;;;;;;;;;14.20;99.90;;;;;;5059232;28;20366;-78
2023/10/26 13:05:56;;;;;;;;;;;14.10;99.90;;;;;;5055112;28;19916;-79
2023/10/26 13:08:22;;;;;;;;;;;14.00;99.90;;;;;;5051803;28;19920;-78
2023/10/26 13:10:48;;;;;;;;;;;13.90;99.90;;;;;;5048428;28;19917;-79
2023/10/26 13:13:14;;;;;;;;;;;14.00;99.90;;;;;;5055962;28;19944;-78
2023/10/26 13:15:39;;;;;;;;;;;14.10;99.90;;;;;;5051325;28;19956;-79
2023/10/26 13:18:05;;;;;;;;;;;14.20;99.90;;;;;;5047914;28;19916;-79
2023/10/26 13:20:31;;;;;;;;;;;14.10;99.90;;;;;;5053246;28;19948;-79
2023/10/26 13:22:57;;;;;;;;;;;13.90;99.90;;;;;;5053355;28;19909;-79
2023/10/26 13:25:23;;;;;;;;;;;14.00;99.90;;;;;;5051939;28;19971;-78
2023/10/26 13:27:50;;;;;;;;;;;13.90;99.90;;;;;;5050438;28;19917;-78
2023/10/26 13:30:16;;;;;;;;;;;14.00;99.90;;;;;;5045394;28;19921;-78
2023/10/26 13:32:42;;;;;;;;;;;14.10;99.90;;;;;;5054263;28;19974;-77
2023/10/26 13:35:08;;;;;;;;;;;14.30;99.90;;;;;;5052493;28;19919;-78
2023/10/26 13:37:33;;;;;;;;;;;14.40;99.90;;;;;;5047481;28;19923;-78
2023/10/26 13:39:59;;;;;;;;;;;14.30;99.90;;;;;;5050824;28;19920;-78
2023/10/26 13:42:26;;;;;;;;;;;14.30;99.90;;;;;;5083308;28;20007;-78
2023/10/26 13:44:52;;;;;;;;;;;14.20;99.90;;;;;;5049426;28;20303;-78
2023/10/26 13:47:18;;;;;;;;;;;14.30;99.90;;;;;;5046947;28;19916;-78
2023/10/26 13:49:43;;;;;;;;;;;14.60;99.90;;;;;;5044384;28;20295;-74
2023/10/26 13:52:09;;;;;;;;;;;14.70;99.90;;;;;;5055957;28;20011;-75
2023/10/26 13:54:35;;;;;;;;;;;14.50;99.90;;;;;;5044341;28;19952;-80
2023/10/26 13:57:01;;;;;;;;;;;14.50;99.90;;;;;;5052558;28;19916;-82
2023/10/26 13:59:29;;;;;;;;;;;14.40;99.90;;;;;;5047849;28;20303;-79
2023/10/26 14:01:55;;;;;;;;;;;14.10;99.90;;;;;;5051496;28;19956;-82
2023/10/26 14:04:21;;;;;;;;;;;14.10;99.90;;;;;;5049885;28;20367;-79
2023/10/26 14:06:47;;;;;;;;;;;14.00;99.90;;;;;;5048527;28;19980;-81
2023/10/26 14:09:13;;;;;;;;;;;13.80;99.90;;;;;;5047947;28;20283;-79
2023/10/26 14:11:39;;;;;;;;;;;13.80;99.90;;;;;;5051272;28;19923;-85
2023/10/26 14:14:04;;;;;;;;;;;13.70;99.90;;;;;;5054024;28;20698;-82
2023/10/26 14:16:30;;;;;;;;;;;13.70;99.90;;;;;;5050248;28;19917;-83
2023/10/26 14:18:55;;;;;;;;;;;13.90;99.90;;;;;;5046372;28;19987;-80